Edwards Creek Valley, Nevada Weather observations

Data are for observation ending at time listed.
 Day   Time    Ave.   Ave.  Ave.  Vector   Max.   Stn.    Total    Solar   Ave.  
  of    of     Air    Rel.  Wind   Wind    Wind   Baro.  Precip.   Rad.    Soil  
Year   Day     Temp.  Hum.  Speed  Dir.    Gust   Pres.                    Temp. 
2015   (PST)    F      %     mph   deg.    mph     mb.     in.     W/m2     F   
------------------------------------------------------------------------------
 242    0:30   64.8    37    5.3   281      9.2    846     0.00       0     78.9
 242    0:40   63.0    39    2.6   247      4.7    846     0.00       0     78.7
 242    0:50   62.4    40    4.6   192      6.4    846     0.00       0     78.4
 242    1:00   61.2    42    5.6   165      6.9    845     0.00       0     78.2
 242    1:10   59.8    44    5.6   158      7.2    845     0.00       0     77.9
 242    1:20   60.5    44    6.8   175      9.1    845     0.00       0     77.6
 242    1:30   62.9    41    5.6   200      7.7    845     0.00       0     77.4
 242    1:40   61.7    42    4.4   219      6.9    845     0.00       0     77.1
 242    1:50   60.1    44    4.0   210      5.7    845     0.00       0     76.9
 242    2:00   59.2    46    2.7   215      4.6    845     0.00       0     76.6
 242    2:10   57.9    48    4.0   196      6.2    845     0.00       0     76.4
 242    2:20   57.1    48    3.7   197      6.6    846     0.00       0     76.1
 242    2:30   55.3    50    2.4     5      5.1    846     0.00       0     75.9
 242    2:40   55.7    51    0.4    18      1.8    845     0.00       0     75.6
 242    2:50   58.7    46    3.5   121      5.1    846     0.00       0     75.3
 242    3:00   59.0    45    2.6   129      4.3    846     0.00       0     75.1
 242    3:10   55.3    49    4.4   138      5.8    846     0.00       0     74.8
 242    3:20   56.4    50    3.6   131      5.9    845     0.00       0     74.6
 242    3:30   57.1    48    3.3   162      4.5    845     0.00       0     74.3
 242    3:40   55.0    50    3.6   178      4.4    845     0.00       0     74.0
 242    3:50   53.5    53    2.3   214      4.9    847     0.00       0     73.8
 242    4:00   52.8    53    3.2   187      4.4    846     0.00       0     73.5
 242    4:10   51.2    56    3.1   199      4.5    847     0.00       0     73.3
 242    4:20   51.4    56    2.3   221      3.3    846     0.00       0     73.1
 242    4:30   49.9    59    3.7   216      5.7    846     0.00       0     72.8
 242    4:40   50.3    58    3.6   210      5.3    846     0.00       0     72.6
 242    4:50   50.7    58    3.8   221      5.6    846     0.00       0     72.3
 242    5:00   50.0    58    3.5   188      4.4    847     0.00       0     72.1
 242    5:10   48.8    60    4.4   173      5.5    848     0.00       1     71.8
 242    5:20   48.5    60    3.6   183      4.5    847     0.00       2     71.6
 242    5:30   48.6    60    3.6   182      4.8    846     0.00       5     71.3
 242    5:40   48.1    60    3.8   186      4.9    846     0.00      10     71.1
 242    5:50   47.6    59    2.8   192      3.9    846     0.00      35     70.9
 242    6:00   49.5    59    3.9   164      6.1    846     0.00      93     70.6
 242    6:10   53.7    53    4.1   176      6.3    846     0.00     136     70.4
 242    6:20   56.3    50    2.9   151      4.0    846     0.00     170     70.2
 242    6:30   59.2    45    3.3   162      4.2    846     0.00     203     70.1
 242    6:40   61.5    42    2.7   166      4.2    846     0.00     237     70.1
 242    6:50   63.6    39    1.3   134      3.2    847     0.00     272     70.1
 242    7:00   65.7    36    0.9   119      2.7    846     0.00     305     70.2
 242    7:10   66.6    35    1.1    93      3.4    846     0.00     342     70.4
 242    7:20   66.7    35    1.5   106      3.2    846     0.00     378     70.6
 242    7:30   67.3    34    1.4    26      3.4    846     0.00     414     71.0
 242    7:40   66.6    34    4.0   333      6.3    847     0.00     448     71.4
 242    7:50   66.5    34    3.8   353      5.8    847     0.00     483     71.8
 242    8:00   67.5    33    1.9     9      5.0    846     0.00     517     72.3
 242    8:10   68.3    32    3.1     7      5.8    847     0.00     549     72.8
 242    8:20   69.0    32    4.2    24      7.8    847     0.00     582     73.4
 242    8:30   69.8    31    2.0    60      5.4    847     0.00     617     74.1
 242    8:40   71.0    30    2.7    26      5.3    848     0.00     650     74.8
 242    8:50   71.5    29    2.4    35      6.6    848     0.00     681     75.5
 242    9:00   72.2    28    4.1    55      8.4    849     0.00     713     76.3
 242    9:10   72.8    27    2.9   257      6.6    849     0.00     722     77.2
 242    9:20   73.0    27    3.2     0      8.1    849     0.00     740     78.0
 242    9:30   74.0    25    4.2    68      9.0    849     0.00     822     78.8
 242    9:40   75.2    23    4.3    23      9.7    847     0.00     778     79.7
 242    9:50   75.8    23    3.2    11      7.4    846     0.00     809     80.6
 242   10:00   75.9    22    2.6   310      6.6    847     0.00     734     81.5
 242   10:10   77.0    20    7.1   223     14.8    847     0.00     700     82.4
 242   10:20   77.8    18    7.1   192     13.8    847     0.00     690     83.2
 242   10:30   79.0    15    9.4   204     18.0    847     0.00     813     83.9
 242   10:40   79.4    15   10.7   198     18.2    848     0.00     928     84.5
 242   10:50   78.7    15   10.8   188     16.7    848     0.00     743     85.1
 242   11:00   78.4    15    9.5   184     16.3    848     0.00     650     85.7
 242   11:10   79.8    13   10.7   198     17.2    848     0.00     898     86.3
 242   11:20   80.4    13   10.7   197     22.1    848     0.00     921     86.8
 242   11:30   80.5    12    9.6   206     19.1    848     0.00     959     87.2
 242   11:40   80.8    11   10.2   199     15.8    848     0.00     954     87.5
 242   11:50   81.0    11   11.9   193     19.0    846     0.00     948     87.9
 242   12:00   81.5    11   12.0   194     17.6    847     0.00     969     88.3
 242   12:10   81.4    12    9.0   204     17.6    847     0.00     983     88.9
 242   12:20   82.2    12   11.1   191     19.6    847     0.00    1005     89.6
 242   12:30   82.6    12   11.8   187     19.0    848     0.00     752     90.3
 242   12:40   82.0    12   10.2   208     17.2    848     0.00     924     91.1
 242   12:50   82.6    11   12.1   177     17.8    848     0.00     825     91.8
 242   13:00   82.1    11   10.7   199     19.8    848     0.00     651     92.4
 242   13:10   81.0    11    7.5   189     16.7    847     0.00     608     93.0
 242   13:20   82.2    11    8.3   206     14.4    847     0.00     780     93.4
 242   13:30   82.5    10    8.3   230     15.9    847     0.00     816     93.8
 242   13:40   82.3    10    7.5   205     13.1    847     0.00     849     94.1
 242   13:50   83.0    10    6.8   247     12.2    847     0.00     888     94.5
 242   14:00   82.3    11    7.6   226     17.2    847     0.00     831     95.0
 242   14:10   83.5    10    6.2   203     16.4    847     0.00     791     95.5
 242   14:20   84.3     9    9.5   213     17.7    846     0.00     761     96.0
 242   14:30   83.6    10    8.9   217     16.1    845     0.00     735     96.5
 242   14:40   82.9    10   10.4   213     19.4    845     0.00     712     96.9
 242   14:50   82.9     9    9.5   197     16.2    845     0.00     691     97.2
 242   15:00   83.0     9   10.4   259     17.0    845     0.00     664     97.4
 242   15:10   82.0    10   10.1   279     18.0    845     0.00     620     97.4
 242   15:20   81.3    11    9.1   291     12.7    845     0.00     614     97.2
 242   15:30   82.1    10    7.8   223     13.0    845     0.00     513     96.8
 242   15:40   81.7    10    9.4   259     19.9    845     0.00     505     96.2
 242   15:50   80.5    14   12.1   316     17.5    845     0.00     307     95.6
 242   16:00   79.4    16   12.5   314     17.5    845     0.00     266     95.0
 242   16:10   78.5    16   12.4   300     18.2    845     0.00     236     94.5
 242   16:20   77.8    16    9.7   299     13.2    845     0.00     100     94.1
 242   16:30   78.3    15   11.1   291     17.0    845     0.00     111     93.7
 242   16:40   78.5    15    9.4   299     14.2    845     0.00     180     93.3
 242   16:50   78.1    14    7.6   328     16.0    845     0.00     281     92.9
 242   17:00   78.0    14    9.2   326     15.5    845     0.00     192     92.6
 242   17:10   78.1    14    9.2   291     16.3    845     0.00     220     92.4
 242   17:20   77.9    14    9.3   302     16.7    845     0.00     166     92.1
 242   17:30   77.5    15    8.8   312     13.2    845     0.00     166     91.8
 242   17:40   76.9    16    8.8   316     12.8    844     0.00     132     91.4
 242   17:50   76.0    17   10.0   326     15.1    844     0.00      97     91.1
 242   18:00   75.1    18    7.5   336     10.6    845     0.00      44     90.7
 242   18:10   73.8    18    5.1   332      7.5    844     0.00      16     90.2
 242   18:20   72.4    19    4.0   349      6.7    844     0.00      10     89.8
 242   18:30   71.2    20    4.2   358      5.5    844     0.00       4     89.3
 242   18:40   70.4    20    3.7    22      4.9    844     0.00       1     88.8
 242   18:50   69.0    22    3.4    26      4.4    844     0.00       0     88.3
 242   19:00   68.6    23    2.4    52      3.2    844     0.00       0     87.8
 242   19:10   67.6    23    3.8   100      5.0    844     0.00       0     87.3
 242   19:20   65.9    23    5.4   113      6.5    844     0.00       0     86.7
 242   19:30   65.3    23    4.1   138      5.5    845     0.00       0     86.2
 242   19:40   63.7    24    4.4   142      5.8    845     0.00       0     85.7
 242   19:50   63.6    25    4.5   139      6.1    846     0.00       0     85.2
 242   20:00   63.7    25    4.0   138      5.0    846     0.00       0     84.7
 242   20:10   62.7    25    4.2   148      5.3    846     0.00       0     84.3
 242   20:20   61.1    26    3.9   166      4.9    847     0.00       0     83.8
 242   20:30   60.7    26    1.7   194      4.2    846     0.00       0     83.4
 242   20:40   60.9    27    2.6   207      5.8    846     0.00       0     82.9
 242   20:50   58.4    29    2.6   214      4.3    846     0.00       0     82.5
 242   21:00   57.3    30    3.9   183      7.2    846     0.00       0     82.1
 242   21:10   57.9    29    3.1   207      4.2    846     0.00       0     81.7
 242   21:20   58.3    30    3.5   220      4.5    846     0.00       0     81.2
 242   21:30   58.7    29    3.7   188      4.7    846     0.00       0     80.9
 242   21:40   56.6    30    4.3   170      4.8    845     0.00       0     80.5
 242   21:50   56.6    32    4.3   152      5.6    845     0.00       0     80.1
 242   22:00   59.2    30    4.5   143      5.4    845     0.00       0     79.7
 242   22:10   59.2    30    5.1   147      6.2    845     0.00       0     79.4
 242   22:20   59.0    31    4.4   159      5.6    845     0.00       0     79.0
 242   22:30   58.8    31    4.1   150      5.8    845     0.00       0     78.7
 242   22:40   56.6    33    1.9   239      4.5    846     0.00       0     78.4
 242   22:50   56.7    32    3.3   244      5.0    846     0.00       0     78.1
 242   23:00   54.1    34    3.0   219      4.8    846     0.00       0     77.8
 242   23:10   54.4    36    2.7   164      3.9    847     0.00       0     77.5
 242   23:20   56.7    33    3.8   143      5.8    848     0.00       0     77.2
 242   23:30   56.3    34    2.9   172      4.5    847     0.00       0     76.8
 242   23:40   56.4    34    3.2   178      4.0    847     0.00       0     76.5
 242   23:50   54.8    34    3.4   112      4.8    847     0.00       0     76.2
 243    0:00   53.4    35    2.1    90      3.1    847     0.00       0     75.9
 243    0:10   54.3    34    2.4   103      5.3    847     0.00       0     75.6
 243    0:20   52.3    36    1.8    17      5.0    847     0.00       0     75.3

Return to Carson Sink graphs page.


Western Regional Climate Center,wrcc@dri.edu